createdAt,value
2019-05-13T00:02:15.294Z,1.70
2019-05-13T00:04:44.931Z,1.70
2019-05-13T00:07:14.799Z,1.70
2019-05-13T00:09:44.399Z,2.08
2019-05-13T00:12:13.993Z,1.77
2019-05-13T00:14:43.655Z,1.98
2019-05-13T00:17:14.560Z,2.00
2019-05-13T00:19:44.419Z,2.00
2019-05-13T00:22:14.223Z,2.08
2019-05-13T00:24:44.413Z,1.70
2019-05-13T00:27:14.242Z,2.17
2019-05-13T00:29:44.472Z,1.90
2019-05-13T00:32:14.249Z,1.98
2019-05-13T00:34:44.545Z,1.67
2019-05-13T00:37:14.792Z,2.30
2019-05-13T00:39:44.487Z,2.02
2019-05-13T00:42:14.355Z,2.20
2019-05-13T00:44:44.477Z,1.95
2019-05-13T00:47:14.248Z,2.15
2019-05-13T00:49:43.856Z,2.20
2019-05-13T00:52:14.329Z,1.95
2019-05-13T00:54:44.279Z,1.98
2019-05-13T00:57:13.997Z,2.45
2019-05-13T00:59:44.295Z,2.08
2019-05-13T01:02:14.152Z,2.20
2019-05-13T01:04:44.241Z,2.40
2019-05-13T01:07:25.280Z,2.35
2019-05-13T01:09:45.284Z,2.35
2019-05-13T01:12:15.040Z,2.40
2019-05-13T01:14:44.682Z,2.80
2019-05-13T01:17:14.331Z,2.55
2019-05-13T01:19:44.087Z,2.30
2019-05-13T01:22:13.810Z,2.70
2019-05-13T01:24:44.191Z,2.70
2019-05-13T01:27:14.098Z,2.77
2019-05-13T01:29:43.785Z,2.67
2019-05-13T01:32:14.404Z,3.80
2019-05-13T01:34:44.446Z,3.40
2019-05-13T01:37:14.209Z,4.25
2019-05-13T01:39:43.912Z,4.83
2019-05-13T01:42:13.895Z,5.33
2019-05-13T01:44:43.893Z,4.15
2019-05-13T01:47:13.916Z,4.22
2019-05-13T01:49:44.097Z,4.10
2019-05-13T01:52:13.829Z,4.08
2019-05-13T01:54:44.221Z,4.25
2019-05-13T01:57:14.376Z,4.17
2019-05-13T01:59:44.028Z,5.12
2019-05-13T02:02:13.888Z,5.17
2019-05-13T02:04:43.956Z,5.15
2019-05-13T02:07:14.446Z,5.00
2019-05-13T02:09:44.641Z,3.92
2019-05-13T02:12:14.229Z,4.37
2019-05-13T02:14:44.448Z,4.97
2019-05-13T02:17:14.709Z,4.70
2019-05-13T02:19:44.491Z,4.30
2019-05-13T02:22:14.699Z,5.00
2019-05-13T02:24:44.768Z,4.37
2019-05-13T02:27:14.641Z,3.95
2019-05-13T02:29:44.230Z,3.92
2019-05-13T02:32:14.160Z,3.67
2019-05-13T02:34:44.130Z,3.37
2019-05-13T02:37:14.503Z,4.10
2019-05-13T02:39:44.126Z,4.03
2019-05-13T02:42:13.907Z,3.83
2019-05-13T02:44:43.879Z,3.72
2019-05-13T02:47:13.790Z,3.87
2019-05-13T02:49:43.438Z,3.52
2019-05-13T02:52:13.498Z,3.52
2019-05-13T02:54:43.328Z,3.12
2019-05-13T02:57:13.010Z,3.55
2019-05-13T02:59:42.867Z,3.10
2019-05-13T03:02:12.722Z,3.33
2019-05-13T03:04:43.391Z,4.25
2019-05-13T03:07:13.418Z,4.12
2019-05-13T03:09:43.158Z,4.05
2019-05-13T03:12:13.322Z,4.17
2019-05-13T03:14:47.912Z,4.00
2019-05-13T03:17:22.020Z,3.85
2019-05-13T03:19:53.100Z,4.17
2019-05-13T03:22:22.590Z,4.65
2019-05-13T03:24:52.711Z,4.80
2019-05-13T03:27:25.077Z,4.40
2019-05-13T03:29:54.057Z,4.78
2019-05-13T03:32:26.104Z,5.00
2019-05-13T03:34:56.836Z,5.12
2019-05-13T03:37:28.019Z,5.67
2019-05-13T03:40:03.022Z,5.37
2019-05-13T03:42:33.600Z,4.97
2019-05-13T03:45:05.806Z,4.90
2019-05-13T03:47:37.498Z,4.72
2019-05-13T03:50:08.128Z,6.15
2019-05-13T03:52:38.564Z,5.97
2019-05-13T03:55:09.016Z,6.53
2019-05-13T03:57:42.372Z,6.35
2019-05-13T04:00:13.154Z,5.90
2019-05-13T04:05:13.796Z,4.10
2019-05-13T04:07:44.036Z,4.15
2019-05-13T04:10:14.655Z,3.83
2019-05-13T04:12:45.290Z,3.40
2019-05-13T04:15:15.715Z,3.58
2019-05-13T04:17:45.760Z,4.20
2019-05-13T04:20:16.290Z,4.37
2019-05-13T04:22:46.892Z,4.90
2019-05-13T04:25:17.176Z,4.28
2019-05-13T04:27:47.738Z,4.03
2019-05-13T04:30:18.091Z,3.58
2019-05-13T04:32:48.760Z,4.55
2019-05-13T04:35:19.099Z,3.70
2019-05-13T04:37:52.648Z,3.22
2019-05-13T04:40:23.266Z,3.60
2019-05-13T04:42:54.090Z,3.62
2019-05-13T04:45:24.448Z,3.08
2019-05-13T04:47:54.810Z,3.12
2019-05-13T04:50:25.339Z,2.95
2019-05-13T04:52:55.665Z,2.90
2019-05-13T04:55:25.858Z,2.70
2019-05-13T04:57:56.282Z,3.12
2019-05-13T05:01:01.995Z,3.22
2019-05-13T05:03:46.397Z,3.10
2019-05-13T05:06:45.163Z,2.95
2019-05-13T05:09:42.908Z,2.85
2019-05-13T05:12:26.740Z,2.83
2019-05-13T05:15:25.277Z,3.05
2019-05-13T05:18:28.386Z,2.72
2019-05-13T05:21:12.004Z,2.27
2019-05-13T05:24:18.513Z,2.75
2019-05-13T05:27:15.647Z,2.42
2019-05-13T05:30:24.340Z,2.25
2019-05-13T05:33:42.513Z,2.10
2019-05-13T05:36:48.700Z,5.03
2019-05-13T05:39:27.167Z,6.28
2019-05-13T05:42:02.004Z,9.08
2019-05-13T05:44:32.844Z,4.33
2019-05-13T05:47:04.883Z,3.70
2019-05-13T05:49:35.415Z,6.30
2019-05-13T05:52:08.934Z,5.08
2019-05-13T05:54:42.204Z,3.95
2019-05-13T05:57:12.874Z,5.40
2019-05-13T05:59:43.270Z,7.35
2019-05-13T06:02:13.644Z,4.80
2019-05-13T06:04:45.689Z,7.37
2019-05-13T06:07:17.127Z,5.05
2019-05-13T06:09:47.804Z,8.63
2019-05-13T06:12:18.528Z,5.55
2019-05-13T06:14:52.232Z,4.22
2019-05-13T06:19:52.431Z,5.05
2019-05-13T06:22:22.760Z,6.45
2019-05-13T06:24:53.140Z,14.63
2019-05-13T06:27:24.032Z,18.73
2019-05-13T06:29:54.447Z,23.92
2019-05-13T06:32:26.402Z,8.33
2019-05-13T06:34:57.136Z,11.03
2019-05-13T06:37:27.167Z,8.70
2019-05-13T06:39:57.987Z,15.90
2019-05-13T06:42:28.858Z,11.50
2019-05-13T06:45:01.730Z,9.73
2019-05-13T06:47:32.527Z,9.75
2019-05-13T06:50:03.593Z,12.05
2019-05-13T06:52:34.436Z,10.20
2019-05-13T06:55:06.284Z,6.75
2019-05-13T06:57:36.596Z,4.60
2019-05-13T07:00:08.874Z,2.83
2019-05-13T07:02:42.541Z,4.72
2019-05-13T07:05:12.180Z,2.52
2019-05-13T07:07:42.948Z,2.10
2019-05-13T07:10:13.701Z,1.50
2019-05-13T07:12:47.016Z,1.72
2019-05-13T07:15:17.873Z,2.30
2019-05-13T07:17:48.689Z,1.90
2019-05-13T07:20:22.677Z,2.20
2019-05-13T07:22:53.299Z,2.42
2019-05-13T07:25:24.448Z,10.20
2019-05-13T07:27:55.243Z,10.55
2019-05-13T07:30:45.455Z,10.08
2019-05-13T07:33:16.170Z,9.80
2019-05-13T07:35:46.999Z,6.92
2019-05-13T07:38:18.641Z,3.75
2019-05-13T07:40:52.264Z,2.17
2019-05-13T07:43:24.397Z,3.25
2019-05-13T07:48:27.902Z,7.47
2019-05-13T07:51:00.728Z,3.83
2019-05-13T07:53:29.175Z,2.87
2019-05-13T07:56:01.988Z,2.15
2019-05-13T07:58:36.506Z,2.00
2019-05-13T08:01:03.520Z,1.30
2019-05-13T08:03:35.188Z,1.70
2019-05-13T08:06:05.281Z,1.30
2019-05-13T08:08:36.147Z,1.40
2019-05-13T08:11:07.044Z,3.08
2019-05-13T08:13:37.562Z,4.53
2019-05-13T08:16:07.752Z,4.33
2019-05-13T08:18:38.127Z,2.52
2019-05-13T08:21:08.959Z,2.15
2019-05-13T08:23:41.647Z,1.05
2019-05-13T08:26:12.437Z,1.35
2019-05-13T08:28:57.025Z,1.35
2019-05-13T08:31:14.607Z,1.67
2019-05-13T08:33:44.927Z,1.42
2019-05-13T08:36:15.201Z,1.30
2019-05-13T08:38:45.407Z,1.40
2019-05-13T08:41:19.441Z,1.12
2019-05-13T08:43:49.055Z,3.08
2019-05-13T08:46:21.876Z,2.33
2019-05-13T08:48:52.002Z,1.50
2019-05-13T08:51:22.651Z,1.20
2019-05-13T08:53:53.231Z,1.45
2019-05-13T08:56:23.687Z,1.35
2019-05-13T08:58:54.325Z,1.50
2019-05-13T09:01:25.138Z,1.45
2019-05-13T09:03:55.656Z,1.30
2019-05-13T09:06:26.471Z,4.00
2019-05-13T09:08:57.081Z,1.37
2019-05-13T09:11:27.422Z,2.58
2019-05-13T09:13:58.071Z,1.95
2019-05-13T09:16:31.822Z,1.40
2019-05-13T09:19:03.729Z,1.37
2019-05-13T09:24:03.320Z,1.47
2019-05-13T09:26:33.922Z,1.20
2019-05-13T09:29:04.216Z,1.40
2019-05-13T09:31:34.691Z,1.45
2019-05-13T09:34:04.944Z,1.70
2019-05-13T09:36:35.160Z,1.65
2019-05-13T09:39:07.850Z,8.98
2019-05-13T09:41:41.114Z,3.20
2019-05-13T09:46:42.495Z,3.52
2019-05-13T09:49:19.639Z,4.57
2019-05-13T09:51:45.012Z,6.05
2019-05-13T09:54:15.208Z,4.83
2019-05-13T09:56:45.527Z,1.20
2019-05-13T09:59:15.699Z,2.00
2019-05-13T10:01:45.794Z,1.20
2019-05-13T10:04:16.270Z,1.20
2019-05-13T10:06:47.009Z,1.30
2019-05-13T10:09:17.585Z,1.50
2019-05-13T10:11:47.746Z,1.05
2019-05-13T10:14:18.009Z,1.00
2019-05-13T10:16:48.406Z,1.15
2019-05-13T10:19:21.259Z,1.00
2019-05-13T10:21:52.457Z,1.00
2019-05-13T10:24:23.017Z,1.37
2019-05-13T10:26:54.422Z,1.00
2019-05-13T10:29:25.148Z,1.98
2019-05-13T10:31:55.350Z,1.50
2019-05-13T10:34:25.869Z,3.17
2019-05-13T10:36:56.816Z,2.72
2019-05-13T10:39:27.172Z,1.07
2019-05-13T10:41:57.515Z,0.98
2019-05-13T10:44:28.010Z,4.42
2019-05-13T10:46:58.305Z,1.00
2019-05-13T10:49:28.789Z,1.20
2019-05-13T10:51:58.976Z,2.25
2019-05-13T10:54:29.334Z,1.10
2019-05-13T10:57:00.769Z,1.82
2019-05-13T10:59:31.914Z,1.47
2019-05-13T11:02:02.388Z,3.60
2019-05-13T11:04:33.000Z,0.90
2019-05-13T11:07:03.476Z,1.20
2019-05-13T11:09:33.768Z,1.20
2019-05-13T11:12:04.265Z,1.20
2019-05-13T11:14:34.510Z,2.50
2019-05-13T11:17:04.854Z,2.35
2019-05-13T11:19:37.129Z,1.45
2019-05-13T11:22:07.345Z,1.00
2019-05-13T11:24:37.849Z,0.72
2019-05-13T11:27:08.173Z,1.12
2019-05-13T11:29:38.480Z,0.90
2019-05-13T11:32:08.879Z,0.82
2019-05-13T11:34:41.447Z,3.12
2019-05-13T11:37:12.343Z,1.45
2019-05-13T11:42:13.801Z,2.05
2019-05-13T11:44:44.285Z,0.80
2019-05-13T11:47:14.568Z,1.77
2019-05-13T11:49:45.019Z,1.20
2019-05-13T11:52:15.749Z,1.20
2019-05-13T11:54:46.101Z,0.90
2019-05-13T11:57:16.579Z,1.20
2019-05-13T11:59:47.103Z,0.90
2019-05-13T12:02:18.058Z,0.90
2019-05-13T12:04:48.191Z,0.70
2019-05-13T12:07:18.563Z,1.40
2019-05-13T12:09:49.036Z,1.40
2019-05-13T12:12:19.190Z,0.88
2019-05-13T12:15:20.982Z,1.40
2019-05-13T12:19:54.222Z,0.93
2019-05-13T12:22:25.258Z,0.70
2019-05-13T12:24:55.553Z,0.90
2019-05-13T12:27:26.111Z,0.90
2019-05-13T12:29:56.496Z,1.10
2019-05-13T12:32:28.125Z,2.33
2019-05-13T12:34:58.516Z,7.47
2019-05-13T12:37:28.782Z,0.75
2019-05-13T12:39:59.199Z,1.20
2019-05-13T12:42:29.380Z,1.62
2019-05-13T12:45:08.125Z,0.90
2019-05-13T12:47:31.649Z,1.07
2019-05-13T12:50:03.246Z,2.05
2019-05-13T12:52:34.611Z,4.65
2019-05-13T12:55:05.645Z,7.93
2019-05-13T12:57:36.030Z,2.90
2019-05-13T13:00:08.451Z,2.27
2019-05-13T13:02:38.715Z,1.80
2019-05-13T13:05:14.149Z,1.10
2019-05-13T13:10:15.495Z,1.67
2019-05-13T13:12:45.703Z,0.60
2019-05-13T13:17:49.089Z,1.30
2019-05-13T13:20:23.973Z,2.08
2019-05-13T13:25:23.845Z,0.90
2019-05-13T13:30:25.179Z,6.80
2019-05-13T13:32:55.346Z,1.67
2019-05-13T13:35:25.303Z,0.90
2019-05-13T13:37:55.623Z,0.70
2019-05-13T13:40:29.649Z,1.72
2019-05-13T13:42:57.813Z,3.37
2019-05-13T13:45:28.547Z,0.90
2019-05-13T13:48:03.681Z,1.10
2019-05-13T13:50:33.559Z,8.93
2019-05-13T13:53:03.918Z,6.72
2019-05-13T13:55:34.214Z,1.40
2019-05-13T13:58:04.947Z,2.42
2019-05-13T14:00:47.440Z,4.22
2019-05-13T14:03:07.731Z,0.80
2019-05-13T14:05:38.076Z,1.12
2019-05-13T14:07:08.010Z,0.90
2019-05-13T14:07:09.285Z,1.50
2019-05-13T14:08:08.075Z,1.30
2019-05-13T14:10:38.383Z,0.80
2019-05-13T14:13:08.909Z,1.62
2019-05-13T14:15:41.547Z,1.05
2019-05-13T14:18:11.421Z,1.00
2019-05-13T14:20:42.795Z,2.67
2019-05-13T14:23:13.526Z,3.12
2019-05-13T14:25:43.685Z,6.12
2019-05-13T14:28:17.481Z,1.98
2019-05-13T14:30:46.319Z,1.10
2019-05-13T14:33:17.866Z,1.20
2019-05-13T14:35:48.103Z,0.90
2019-05-13T14:38:18.753Z,1.60
2019-05-13T14:40:51.695Z,0.90
2019-05-13T14:43:22.920Z,1.10
2019-05-13T14:48:22.754Z,1.40
2019-05-13T14:50:53.013Z,0.80
2019-05-13T14:53:23.338Z,5.10
2019-05-13T14:55:53.873Z,7.78
2019-05-13T14:58:25.073Z,2.25
2019-05-13T15:01:11.157Z,0.98
2019-05-13T15:03:27.096Z,1.00
2019-05-13T15:05:57.189Z,1.22
2019-05-13T15:08:27.321Z,1.05
2019-05-13T15:10:57.533Z,1.00
2019-05-13T15:13:27.764Z,1.17
2019-05-13T15:15:58.032Z,1.22
2019-05-13T15:18:32.237Z,0.90
2019-05-13T15:21:02.016Z,1.00
2019-05-13T15:23:32.261Z,1.27
2019-05-13T15:26:02.600Z,2.50
2019-05-13T15:28:32.767Z,1.32
2019-05-13T15:31:03.097Z,1.22
2019-05-13T15:33:34.855Z,5.42
2019-05-13T15:36:05.102Z,1.50
2019-05-13T15:38:35.447Z,0.95
2019-05-13T15:41:05.589Z,0.90
2019-05-13T15:43:35.950Z,1.47
2019-05-13T15:46:08.372Z,3.27
2019-05-13T15:48:42.040Z,2.35
2019-05-13T15:51:11.527Z,3.80
2019-05-13T15:53:43.718Z,2.08
2019-05-13T15:58:44.518Z,0.90
2019-05-13T16:03:44.263Z,1.10
2019-05-13T16:06:14.413Z,1.02
2019-05-13T16:08:44.363Z,1.20
2019-05-13T16:11:14.542Z,10.98
2019-05-13T16:13:45.153Z,6.15
2019-05-13T16:16:15.449Z,9.08
2019-05-13T16:18:45.668Z,10.35
2019-05-13T16:21:15.956Z,1.60
2019-05-13T16:23:46.092Z,0.85
2019-05-13T16:26:16.273Z,1.15
2019-05-13T16:28:46.484Z,7.00
2019-05-13T16:31:16.571Z,1.50
2019-05-13T16:33:46.926Z,8.08
2019-05-13T16:36:17.100Z,6.30
2019-05-13T16:38:47.418Z,7.97
2019-05-13T16:41:17.895Z,8.53
2019-05-13T16:43:49.670Z,2.50
2019-05-13T16:46:21.442Z,9.88
2019-05-13T16:51:21.620Z,1.62
2019-05-13T16:53:52.443Z,1.22
2019-05-13T16:56:27.738Z,3.30
2019-05-13T16:58:54.637Z,6.92
2019-05-13T17:01:24.886Z,5.10
2019-05-13T17:03:55.182Z,1.37
2019-05-13T17:06:25.397Z,1.10
2019-05-13T17:08:55.552Z,4.92
2019-05-13T17:11:25.901Z,1.80
2019-05-13T17:13:56.134Z,2.33
2019-05-13T17:16:26.318Z,1.50
2019-05-13T17:18:56.622Z,3.58
2019-05-13T17:21:28.646Z,3.90
2019-05-13T17:23:58.628Z,3.22
2019-05-13T17:26:29.073Z,4.65
2019-05-13T17:29:01.428Z,2.33
2019-05-13T17:31:32.553Z,1.98
2019-05-13T17:34:02.770Z,17.90
2019-05-13T17:36:33.305Z,6.00
2019-05-13T17:39:05.141Z,6.22
2019-05-13T17:41:35.376Z,5.50
2019-05-13T17:44:06.187Z,3.20
2019-05-13T17:46:36.461Z,2.67
2019-05-13T17:49:06.751Z,4.70
2019-05-13T17:51:37.246Z,7.03
2019-05-13T17:54:07.378Z,3.50
2019-05-13T17:56:37.857Z,8.00
2019-05-13T17:59:08.114Z,1.85
2019-05-13T18:01:38.309Z,5.00
2019-05-13T18:04:08.502Z,3.65
2019-05-13T18:06:38.904Z,6.95
2019-05-13T18:09:11.956Z,12.82
2019-05-13T18:11:42.025Z,16.15
2019-05-13T18:14:12.079Z,6.00
2019-05-13T18:16:42.280Z,6.12
2019-05-13T18:19:12.554Z,12.60
2019-05-13T18:21:43.009Z,13.93
2019-05-13T18:24:13.399Z,9.65
2019-05-13T18:26:43.588Z,5.22
2019-05-13T18:29:14.189Z,5.25
2019-05-13T18:31:44.584Z,6.97
2019-05-13T18:34:15.035Z,12.95
2019-05-13T18:36:45.646Z,14.03
2019-05-13T18:39:15.916Z,3.22
2019-05-13T18:41:46.279Z,3.62
2019-05-13T18:44:16.721Z,8.80
2019-05-13T18:46:47.051Z,7.55
2019-05-13T18:49:17.392Z,7.78
2019-05-13T18:51:47.497Z,5.40
2019-05-13T18:54:17.656Z,6.70
2019-05-13T18:56:48.028Z,10.78
2019-05-13T18:59:18.622Z,8.55
2019-05-13T19:01:52.679Z,7.53
2019-05-13T19:04:21.844Z,3.40
2019-05-13T19:06:52.349Z,6.12
2019-05-13T19:09:22.858Z,6.80
2019-05-13T19:11:53.097Z,6.28
2019-05-13T19:14:23.645Z,7.83
2019-05-13T19:16:53.999Z,7.15
2019-05-13T19:19:24.150Z,7.60
2019-05-13T19:21:54.308Z,10.70
2019-05-13T19:24:24.920Z,11.30
2019-05-13T19:26:55.075Z,14.80
2019-05-13T19:29:26.209Z,15.68
2019-05-13T19:31:56.108Z,10.10
2019-05-13T19:34:26.066Z,9.25
2019-05-13T19:36:56.482Z,7.33
2019-05-13T19:39:26.961Z,6.03
2019-05-13T19:41:57.116Z,4.50
2019-05-13T19:44:27.244Z,2.95
2019-05-13T19:46:57.091Z,2.77
2019-05-13T19:49:32.145Z,2.42
2019-05-13T19:51:58.433Z,3.77
2019-05-13T19:54:28.254Z,2.12
2019-05-13T19:56:58.328Z,3.50
2019-05-13T19:59:28.351Z,3.15
2019-05-13T20:01:58.001Z,2.80
2019-05-13T20:04:27.734Z,2.45
2019-05-13T20:06:57.506Z,2.42
2019-05-13T20:09:27.168Z,2.40
2019-05-13T20:11:57.166Z,2.47
2019-05-13T20:14:27.063Z,2.12
2019-05-13T20:16:56.812Z,1.75
2019-05-13T20:19:26.483Z,2.17
2019-05-13T20:21:56.435Z,1.70
2019-05-13T20:24:26.114Z,1.80
2019-05-13T20:26:55.800Z,1.92
2019-05-13T20:29:25.648Z,2.00
2019-05-13T20:31:55.577Z,1.45
2019-05-13T20:34:25.539Z,1.90
2019-05-13T20:36:55.185Z,1.65
2019-05-13T20:39:25.505Z,2.08
2019-05-13T20:41:55.821Z,1.90
2019-05-13T20:44:25.800Z,2.10
2019-05-13T20:46:55.718Z,2.20
2019-05-13T20:49:25.724Z,1.72
2019-05-13T20:51:55.533Z,1.77
2019-05-13T20:54:25.309Z,1.70
2019-05-13T20:56:54.927Z,1.65
2019-05-13T20:59:24.636Z,1.82
2019-05-13T21:01:54.378Z,1.90
2019-05-13T21:04:24.093Z,1.90
2019-05-13T21:06:54.088Z,2.42
2019-05-13T21:09:23.724Z,2.42
2019-05-13T21:11:53.529Z,2.85
2019-05-13T21:14:23.404Z,2.17
2019-05-13T21:16:53.775Z,2.87
2019-05-13T21:19:24.015Z,1.80
2019-05-13T21:21:53.714Z,1.70
2019-05-13T21:24:23.346Z,1.60
2019-05-13T21:26:53.274Z,1.80
2019-05-13T21:29:23.415Z,2.42
2019-05-13T21:31:53.835Z,2.15
2019-05-13T21:34:23.555Z,2.35
2019-05-13T21:36:54.955Z,2.00
2019-05-13T21:39:24.962Z,2.02
2019-05-13T21:41:54.786Z,2.00
2019-05-13T21:44:24.543Z,2.00
2019-05-13T21:46:54.408Z,2.02
2019-05-13T21:49:24.191Z,2.37
2019-05-13T21:51:53.991Z,2.50
2019-05-13T21:54:23.857Z,2.83
2019-05-13T21:56:53.738Z,2.80
2019-05-13T21:59:23.412Z,2.45
2019-05-13T22:01:53.833Z,3.27
2019-05-13T22:04:23.700Z,2.92
2019-05-13T22:06:53.447Z,2.60
2019-05-13T22:09:23.356Z,1.95
2019-05-13T22:11:53.735Z,2.40
2019-05-13T22:14:23.554Z,2.30
2019-05-13T22:16:56.478Z,2.08
2019-05-13T22:19:25.123Z,1.90
2019-05-13T22:21:54.924Z,2.25
2019-05-13T22:24:25.181Z,2.22
2019-05-13T22:26:54.942Z,2.35
2019-05-13T22:29:24.503Z,2.20
2019-05-13T22:31:54.293Z,2.62
2019-05-13T22:34:23.989Z,2.92
2019-05-13T22:36:53.723Z,2.35
2019-05-13T22:39:23.386Z,2.50
2019-05-13T22:41:53.322Z,2.80
2019-05-13T22:44:23.159Z,2.52
2019-05-13T22:46:53.194Z,2.50
2019-05-13T22:49:23.065Z,2.42
2019-05-13T22:51:53.101Z,2.40
2019-05-13T22:54:23.036Z,2.12
2019-05-13T22:56:52.829Z,1.90
2019-05-13T22:59:22.762Z,2.30
2019-05-13T23:01:52.552Z,2.00
2019-05-13T23:04:22.718Z,2.30
2019-05-13T23:06:52.620Z,1.60
2019-05-13T23:09:22.764Z,2.27
2019-05-13T23:11:52.519Z,2.20
2019-05-13T23:14:22.390Z,1.50
2019-05-13T23:16:51.971Z,2.10
2019-05-13T23:19:21.861Z,1.75
2019-05-13T23:21:51.751Z,1.77
2019-05-13T23:24:22.916Z,2.37
2019-05-13T23:26:52.562Z,1.90
2019-05-13T23:29:22.266Z,2.37
2019-05-13T23:31:52.140Z,2.35
2019-05-13T23:34:22.409Z,1.95
2019-05-13T23:36:52.319Z,2.42
2019-05-13T23:39:22.113Z,2.20
2019-05-13T23:41:52.274Z,1.90
2019-05-13T23:44:27.808Z,1.92
2019-05-13T23:46:53.514Z,1.85
2019-05-13T23:49:23.250Z,1.70
2019-05-13T23:51:52.826Z,1.65
2019-05-13T23:54:22.534Z,1.75
2019-05-13T23:56:52.281Z,1.40
2019-05-13T23:59:22.009Z,1.82
